Time;durP1;ratioP1;P1;durP2;ratioP2;P2;SDS_P1;SDS_P2;PMS_P1;PMS_P2;Temp;Humidity;BMP_temperature;BMP_pressure;BME280_temperature;BME280_humidity;BME280_pressure;Samples;Min_cycle;Max_cycle;Signal;HPM_P1;HPM_P2
2022/12/10 00:01:26;;;;;;;51.03;26.50;;;-1.10;99.90;;;;;;5072982;28;20062;-61
2022/12/10 00:03:52;;;;;;;49.60;26.02;;;-1.10;99.90;;;;;;5073851;28;20058;-61
2022/12/10 00:06:21;;;;;;;50.65;26.40;;;-1.20;99.90;;;;;;5073911;28;20115;-60
2022/12/10 00:08:46;;;;;;;51.08;26.02;;;-1.20;99.90;;;;;;5073585;28;20048;-61
2022/12/10 00:11:14;;;;;;;53.40;25.75;;;-1.10;99.90;;;;;;5073622;28;20112;-61
2022/12/10 00:13:41;;;;;;;50.47;26.15;;;-1.20;99.90;;;;;;5073626;28;20036;-61
2022/12/10 00:16:09;;;;;;;53.95;26.63;;;-1.20;99.90;;;;;;5073441;28;20083;-61
2022/12/10 00:18:37;;;;;;;49.28;26.73;;;-1.20;99.90;;;;;;5072234;28;20102;-61
2022/12/10 00:21:04;;;;;;;55.55;26.45;;;-1.20;99.90;;;;;;5073646;28;20037;-61
2022/12/10 00:23:32;;;;;;;44.92;25.80;;;-1.20;99.90;;;;;;5073257;28;20064;-61
2022/12/10 00:26:09;;;;;;;51.67;26.25;;;-1.20;99.90;;;;;;5072152;28;20047;-61
2022/12/10 00:28:35;;;;;;;53.42;26.33;;;-1.30;99.90;;;;;;5073222;28;20037;-61
2022/12/10 00:31:09;;;;;;;51.45;26.48;;;-1.20;99.90;;;;;;5073755;28;20047;-61
2022/12/10 00:33:36;;;;;;;52.40;26.63;;;-1.20;99.90;;;;;;5073368;28;20036;-61
2022/12/10 00:36:07;;;;;;;53.22;27.35;;;-1.20;99.90;;;;;;5072897;28;20561;-61
2022/12/10 00:38:33;;;;;;;53.22;26.42;;;-1.20;99.90;;;;;;5073148;28;20087;-61
2022/12/10 00:40:59;;;;;;;50.10;26.13;;;-1.20;99.90;;;;;;5073102;28;20036;-61
2022/12/10 00:43:26;;;;;;;50.20;26.60;;;-1.30;99.90;;;;;;5072901;28;20043;-61
2022/12/10 00:45:52;;;;;;;53.90;28.65;;;-1.20;99.90;;;;;;5072874;28;20467;-61
2022/12/10 00:48:18;;;;;;;53.88;29.10;;;-1.20;99.90;;;;;;5072933;28;20048;-61
2022/12/10 00:50:44;;;;;;;55.70;28.85;;;-1.20;99.90;;;;;;5072964;28;20036;-61
2022/12/10 00:53:09;;;;;;;57.35;29.33;;;-1.20;99.90;;;;;;5099051;28;20051;-61
2022/12/10 00:55:35;;;;;;;56.20;28.95;;;-1.20;99.90;;;;;;5113527;28;20450;-61
2022/12/10 00:58:00;;;;;;;64.40;32.22;;;-1.20;99.90;;;;;;5113308;28;20067;-61
2022/12/10 01:00:26;;;;;;;62.53;31.15;;;-1.30;99.90;;;;;;5113394;28;20035;-61
2022/12/10 01:02:53;;;;;;;59.58;31.13;;;-1.20;99.90;;;;;;5113463;28;20043;-61
2022/12/10 01:05:18;;;;;;;63.38;30.48;;;-1.20;99.90;;;;;;5113029;28;20515;-61
2022/12/10 01:07:44;;;;;;;58.65;30.48;;;-1.30;99.90;;;;;;5113460;28;20139;-61
2022/12/10 01:10:10;;;;;;;54.42;29.35;;;-1.20;99.90;;;;;;5112994;28;20032;-61
2022/12/10 01:12:35;;;;;;;60.38;29.08;;;-1.10;99.90;;;;;;5112830;28;20027;-61
2022/12/10 01:15:01;;;;;;;55.17;30.08;;;-1.10;99.90;;;;;;5093547;28;20050;-61
2022/12/10 01:17:27;;;;;;;59.10;30.42;;;-1.20;99.90;;;;;;5112807;28;20082;-61
2022/12/10 01:19:52;;;;;;;55.40;29.23;;;-1.10;99.90;;;;;;5112836;28;20474;-61
2022/12/10 01:22:18;;;;;;;54.17;29.63;;;-1.10;99.90;;;;;;5112967;28;20036;-62
2022/12/10 01:24:44;;;;;;;60.83;31.30;;;-1.20;99.90;;;;;;5112559;28;20039;-61
2022/12/10 01:27:09;;;;;;;60.60;31.60;;;-1.30;99.90;;;;;;5112769;28;20079;-61
2022/12/10 01:29:35;;;;;;;58.83;28.98;;;-1.20;99.90;;;;;;5112705;28;20062;-61
2022/12/10 01:32:01;;;;;;;62.22;30.50;;;-1.30;99.90;;;;;;5112555;28;20047;-61
2022/12/10 01:34:26;;;;;;;50.10;28.65;;;-1.20;99.90;;;;;;5112804;28;20043;-61
2022/12/10 01:36:54;;;;;;;53.55;27.63;;;-1.30;99.90;;;;;;5112730;28;20047;-62
2022/12/10 01:39:21;;;;;;;54.42;28.60;;;-1.30;99.90;;;;;;5112848;28;20038;-61
2022/12/10 01:41:54;;;;;;;54.38;29.55;;;-1.40;99.90;;;;;;5112540;28;20114;-61
2022/12/10 01:44:19;;;;;;;58.22;31.00;;;-1.40;99.90;;;;;;5112605;28;20450;-61
2022/12/10 01:46:49;;;;;;;51.60;27.08;;;-1.40;99.90;;;;;;5112336;28;20118;-61
2022/12/10 01:49:21;;;;;;;57.45;29.23;;;-1.40;99.90;;;;;;5112674;28;20363;-61
2022/12/10 01:51:51;;;;;;;59.10;30.60;;;-1.30;99.90;;;;;;5094164;28;20089;-61
2022/12/10 01:54:22;;;;;;;62.47;30.42;;;-1.30;99.90;;;;;;5112331;28;20691;-61
2022/12/10 01:56:54;;;;;;;64.90;32.08;;;-1.20;99.90;;;;;;5112272;28;20086;-61
2022/12/10 01:59:19;;;;;;;65.40;31.48;;;-1.40;99.90;;;;;;5094268;28;20036;-62
2022/12/10 02:01:48;;;;;;;63.13;30.48;;;-1.30;99.90;;;;;;5112272;28;20123;-61
2022/12/10 02:04:33;;;;;;;66.95;31.20;;;-1.40;99.90;;;;;;5112281;28;20039;-61
2022/12/10 02:07:13;;;;;;;58.03;30.27;;;-1.40;99.90;;;;;;5112200;28;20047;-61
2022/12/10 02:09:44;;;;;;;61.38;31.67;;;-1.50;99.90;;;;;;5112024;28;20047;-61
2022/12/10 02:12:41;;;;;;;60.63;30.17;;;-1.40;99.90;;;;;;5112133;28;20477;-61
2022/12/10 02:15:13;;;;;;;67.00;31.90;;;-1.40;99.90;;;;;;5009618;28;20050;-62
2022/12/10 02:17:52;;;;;;;64.18;31.58;;;-1.40;99.90;;;;;;4993085;28;20104;-61
2022/12/10 02:20:22;;;;;;;69.50;31.33;;;-1.30;99.90;;;;;;5009728;28;20054;-62
2022/12/10 02:23:07;;;;;;;69.88;32.42;;;-1.40;99.90;;;;;;4993366;28;20049;-61
2022/12/10 02:25:50;;;;;;;70.13;31.88;;;-1.40;99.90;;;;;;5015964;28;20041;-61
2022/12/10 02:28:52;;;;;;;64.60;31.63;;;-1.40;99.90;;;;;;5016095;28;20481;-61
2022/12/10 02:31:28;;;;;;;70.05;32.22;;;-1.40;99.90;;;;;;5016085;28;20072;-61
2022/12/10 02:33:58;;;;;;;61.95;33.42;;;-1.30;99.90;;;;;;5016051;28;20049;-60
2022/12/10 02:36:28;;;;;;;71.55;33.83;;;-1.50;99.90;;;;;;5015799;28;20057;-61
2022/12/10 02:38:56;;;;;;;69.85;33.80;;;-1.40;99.90;;;;;;4999445;28;20531;-61
2022/12/10 02:41:30;;;;;;;67.70;32.00;;;-1.50;99.90;;;;;;5015964;28;20041;-60
2022/12/10 02:43:59;;;;;;;65.07;34.53;;;-1.50;99.90;;;;;;5016143;28;20041;-61
2022/12/10 02:46:28;;;;;;;62.72;33.15;;;-1.40;99.90;;;;;;5015956;28;20053;-60
2022/12/10 02:48:54;;;;;;;;;;;-1.50;99.90;;;;;;5016582;28;20049;-61
2022/12/10 02:51:19;;;;;;;61.17;31.60;;;-1.50;99.90;;;;;;5030834;28;19920;-61
2022/12/10 02:53:45;;;;;;;65.57;32.05;;;-1.50;99.90;;;;;;5118405;28;20117;-61
2022/12/10 02:56:32;;;;;;;63.72;32.17;;;-1.40;99.90;;;;;;5118697;28;20043;-61
2022/12/10 02:59:25;;;;;;;67.88;32.58;;;-1.50;99.90;;;;;;5100208;28;20036;-61
2022/12/10 03:01:56;;;;;;;69.28;32.38;;;-1.50;99.90;;;;;;5118471;28;20437;-60
2022/12/10 03:04:52;;;;;;;64.43;30.58;;;-1.40;99.90;;;;;;5118696;28;20085;-60
2022/12/10 03:07:28;;;;;;;64.50;31.50;;;-1.50;99.90;;;;;;5118513;28;20043;-61
2022/12/10 03:09:58;;;;;;;66.10;32.38;;;-1.50;99.90;;;;;;5118684;28;20039;-60
2022/12/10 03:12:36;;;;;;;71.55;33.55;;;-1.50;99.90;;;;;;5118367;28;20660;-61
2022/12/10 03:15:07;;;;;;;64.50;32.08;;;-1.60;99.90;;;;;;5118550;28;20055;-61
2022/12/10 03:17:34;;;;;;;64.97;32.92;;;-1.60;99.90;;;;;;5118067;28;20050;-61
2022/12/10 03:20:01;;;;;;;66.88;33.13;;;-1.60;99.90;;;;;;5100084;28;20446;-61
2022/12/10 03:22:29;;;;;;;63.30;31.30;;;-1.60;99.90;;;;;;5118211;28;20383;-61
2022/12/10 03:24:55;;;;;;;66.75;33.85;;;-1.50;99.90;;;;;;5118056;28;20035;-61
2022/12/10 03:27:23;;;;;;;66.93;31.38;;;-1.50;99.90;;;;;;5099829;28;20043;-61
2022/12/10 03:29:52;;;;;;;63.65;32.60;;;-1.50;99.90;;;;;;5118477;28;20160;-60
2022/12/10 03:32:22;;;;;;;64.35;32.35;;;-1.40;99.90;;;;;;5118627;28;20040;-61
2022/12/10 03:34:50;;;;;;;60.70;31.42;;;-1.60;99.90;;;;;;5117610;28;20097;-61
2022/12/10 03:37:16;;;;;;;66.07;33.60;;;-1.60;99.90;;;;;;5114802;28;20044;-61
2022/12/10 03:39:42;;;;;;;62.95;31.48;;;-1.60;99.90;;;;;;5115002;28;20444;-60
2022/12/10 03:42:08;;;;;;;60.90;31.80;;;-1.50;99.90;;;;;;5114972;28;20422;-62
2022/12/10 03:44:36;;;;;;;64.50;31.83;;;-1.50;99.90;;;;;;5115006;28;20035;-61
2022/12/10 03:47:04;;;;;;;65.88;33.15;;;-1.60;99.90;;;;;;5114779;28;20047;-61
2022/12/10 03:49:30;;;;;;;60.20;32.13;;;-1.60;99.90;;;;;;5114747;28;20406;-61
2022/12/10 03:51:56;;;;;;;61.55;30.30;;;-1.60;99.90;;;;;;5114676;28;20043;-61
2022/12/10 03:54:22;;;;;;;62.78;31.92;;;-1.70;99.90;;;;;;5114578;28;20081;-61
2022/12/10 03:56:48;;;;;;;68.90;34.08;;;-1.70;99.90;;;;;;5114660;28;20052;-60
2022/12/10 03:59:13;;;;;;;59.63;30.70;;;-1.70;99.90;;;;;;5114895;28;20123;-61
2022/12/10 04:01:40;;;;;;;57.25;31.52;;;-1.60;99.90;;;;;;5114529;28;20534;-61
2022/12/10 04:04:06;;;;;;;62.97;32.17;;;-1.60;99.90;;;;;;5114821;28;20538;-61
2022/12/10 04:06:32;;;;;;;64.30;31.50;;;-1.70;99.90;;;;;;5114354;28;20172;-61
2022/12/10 04:08:57;;;;;;;63.58;31.85;;;-1.60;99.90;;;;;;5114323;28;20114;-60
2022/12/10 04:11:23;;;;;;;72.88;33.30;;;-1.80;99.90;;;;;;5114130;28;20446;-61
2022/12/10 04:16:35;;;;;;;67.30;33.03;;;-1.70;99.90;;;;;;5114213;28;20043;-61
2022/12/10 04:19:11;;;;;;;62.55;31.50;;;-1.60;99.90;;;;;;5114076;28;20043;-61
2022/12/10 04:27:29;;;;;;;60.72;30.88;;;-1.60;99.90;;;;;;5114031;28;20455;-61
2022/12/10 04:29:57;;;;;;;59.42;30.83;;;-1.60;99.90;;;;;;5114146;28;20044;-61
2022/12/10 04:32:24;;;;;;;63.28;32.47;;;-1.60;99.90;;;;;;5114259;28;20039;-60
2022/12/10 04:34:49;;;;;;;70.03;35.08;;;-1.70;99.90;;;;;;5114137;28;20043;-60
2022/12/10 04:37:17;;;;;;;70.22;36.70;;;-1.80;99.90;;;;;;5113820;28;20159;-61
2022/12/10 04:39:42;;;;;;;65.38;33.53;;;-1.80;99.90;;;;;;5113863;28;20070;-60
2022/12/10 04:42:08;;;;;;;75.97;36.17;;;-1.80;99.90;;;;;;5114039;28;20067;-60
2022/12/10 04:44:35;;;;;;;69.10;33.72;;;-1.70;99.90;;;;;;5113903;28;20040;-60
2022/12/10 04:47:00;;;;;;;68.57;34.55;;;-1.70;99.90;;;;;;5113266;28;20093;-60
2022/12/10 04:49:26;;;;;;;64.28;31.65;;;-1.70;99.90;;;;;;5113673;28;20423;-60
2022/12/10 04:51:52;;;;;;;68.60;32.92;;;-1.70;99.90;;;;;;5113739;28;20039;-60
2022/12/10 04:54:19;;;;;;;68.75;33.45;;;-1.60;99.90;;;;;;5113443;28;20056;-60
2022/12/10 04:56:45;;;;;;;66.63;32.92;;;-1.70;99.90;;;;;;5113800;28;20086;-61
2022/12/10 04:59:11;;;;;;;63.10;33.40;;;-1.50;99.90;;;;;;5113541;28;20118;-61
2022/12/10 05:01:37;;;;;;;67.63;32.90;;;-1.50;99.90;;;;;;5113361;28;20114;-60
2022/12/10 05:04:06;;;;;;;65.13;32.60;;;-1.50;99.90;;;;;;5113560;28;20035;-61
2022/12/10 05:06:32;;;;;;;69.05;34.70;;;-1.50;99.90;;;;;;5113473;28;20085;-60
2022/12/10 05:08:58;;;;;;;77.97;35.08;;;-1.40;99.90;;;;;;5113249;28;20389;-61
2022/12/10 05:11:26;;;;;;;84.63;35.65;;;-1.30;99.90;;;;;;5113489;28;20218;-60
2022/12/10 05:13:55;;;;;;;72.38;35.15;;;-1.40;99.90;;;;;;5113160;28;20398;-61
2022/12/10 05:16:22;;;;;;;;;;;-1.30;99.90;;;;;;5113754;28;20079;-61
2022/12/10 05:18:48;;;;;;;75.30;35.40;;;-1.40;99.90;;;;;;5113331;28;19922;-61
2022/12/10 05:21:16;;;;;;;79.15;35.08;;;-1.30;99.90;;;;;;5113099;28;20036;-60
2022/12/10 05:23:45;;;;;;;86.35;37.42;;;-1.40;99.90;;;;;;5113262;28;20043;-61
2022/12/10 05:26:23;;;;;;;80.20;35.58;;;-1.40;99.90;;;;;;5113289;28;20071;-61
2022/12/10 05:28:53;;;;;;;80.45;36.72;;;-1.40;99.90;;;;;;5113113;28;20036;-60
2022/12/10 05:31:27;;;;;;;77.75;34.83;;;-1.20;99.90;;;;;;5113049;28;20118;-60
2022/12/10 05:33:54;;;;;;;80.43;35.88;;;-1.30;99.90;;;;;;5113114;28;20394;-60
2022/12/10 05:36:22;;;;;;;83.05;38.38;;;-1.40;99.90;;;;;;5112943;28;20109;-60
2022/12/10 05:38:48;;;;;;;83.60;37.78;;;-1.20;99.90;;;;;;5113091;28;20118;-61
2022/12/10 05:41:23;;;;;;;85.47;36.42;;;-1.20;99.90;;;;;;5112881;28;20069;-60
2022/12/10 05:43:49;;;;;;;94.53;37.17;;;-1.20;99.90;;;;;;5112754;28;20370;-61
2022/12/10 05:46:21;;;;;;;83.63;36.92;;;-1.10;99.90;;;;;;5112716;28;20486;-61
2022/12/10 05:48:46;;;;;;;97.00;38.90;;;-1.10;99.90;;;;;;5113026;28;20051;-60
2022/12/10 05:51:16;;;;;;;97.80;39.22;;;-1.10;99.90;;;;;;5112963;28;20035;-60
2022/12/10 05:53:42;;;;;;;;;;;-1.10;99.90;;;;;;5113127;28;20059;-60
2022/12/10 05:56:13;;;;;;;90.47;36.90;;;-1.20;99.90;;;;;;5112913;28;19930;-60
2022/12/10 05:58:40;;;;;;;96.40;36.88;;;-1.20;99.90;;;;;;5111533;28;20039;-60
2022/12/10 06:01:12;;;;;;;130.60;38.63;;;-1.20;99.90;;;;;;5094584;28;20040;-60
2022/12/10 06:03:37;;;;;;;87.05;36.50;;;-1.10;99.90;;;;;;5094454;28;20067;-60
2022/12/10 06:06:04;;;;;;;104.45;37.70;;;-1.30;99.90;;;;;;5094275;28;20075;-60
2022/12/10 06:08:30;;;;;;;83.03;36.35;;;-1.10;99.90;;;;;;5112300;28;20042;-60
2022/12/10 06:10:58;;;;;;;96.70;35.58;;;-1.10;99.90;;;;;;5112569;28;20389;-60
2022/12/10 06:13:23;;;;;;;143.32;38.58;;;-1.10;99.90;;;;;;5112265;28;20035;-60
2022/12/10 06:15:49;;;;;;;90.95;37.00;;;-1.30;99.90;;;;;;5112436;28;20122;-60
2022/12/10 06:18:15;;;;;;;123.00;38.28;;;-1.10;99.90;;;;;;5094074;28;20381;-60
2022/12/10 06:20:40;;;;;;;106.20;38.28;;;-1.30;99.90;;;;;;5112388;28;20111;-60
2022/12/10 06:23:07;;;;;;;129.10;38.63;;;-1.10;99.90;;;;;;5112348;28;20042;-60
2022/12/10 06:25:33;;;;;;;129.27;38.40;;;-1.30;99.90;;;;;;5112526;28;20066;-60
2022/12/10 06:27:58;;;;;;;106.72;36.50;;;-1.30;99.90;;;;;;5112306;28;20549;-60
2022/12/10 06:30:25;;;;;;;156.52;39.10;;;-1.30;99.90;;;;;;5112190;28;20036;-60
2022/12/10 06:32:50;;;;;;;149.32;37.45;;;-1.20;99.90;;;;;;5112345;28;20032;-60
2022/12/10 06:35:16;;;;;;;136.98;38.05;;;-1.30;99.90;;;;;;5112323;28;20051;-61
2022/12/10 06:37:41;;;;;;;274.30;42.35;;;-1.30;99.90;;;;;;5112128;28;20035;-60
2022/12/10 06:40:08;;;;;;;98.15;37.38;;;-1.00;99.90;;;;;;5112152;28;20115;-60
2022/12/10 06:42:33;;;;;;;82.80;34.58;;;-1.30;99.90;;;;;;5111894;28;20551;-60
2022/12/10 06:44:59;;;;;;;113.55;34.47;;;-1.00;99.90;;;;;;5112011;28;20118;-60
2022/12/10 06:47:25;;;;;;;100.57;36.38;;;-1.20;99.90;;;;;;5112196;28;20046;-60
2022/12/10 06:49:51;;;;;;;145.20;36.70;;;-0.90;99.90;;;;;;5093710;28;20126;-60
2022/12/10 06:52:16;;;;;;;164.05;38.50;;;-1.00;99.90;;;;;;5112023;28;20177;-60
2022/12/10 06:54:42;;;;;;;158.75;33.85;;;-1.20;99.90;;;;;;5111841;28;20054;-60
2022/12/10 06:57:08;;;;;;;208.32;37.65;;;-1.20;99.90;;;;;;5111659;28;20048;-60
2022/12/10 06:59:33;;;;;;;173.40;38.22;;;-1.30;99.90;;;;;;5093967;28;20362;-60
2022/12/10 07:01:59;;;;;;;168.13;35.97;;;-1.30;99.90;;;;;;5111931;28;20089;-60
2022/12/10 07:04:25;;;;;;;219.63;37.53;;;-1.20;99.90;;;;;;5111981;28;20534;-60
2022/12/10 07:06:50;;;;;;;275.45;40.00;;;-1.30;99.90;;;;;;5112015;28;20101;-60
2022/12/10 07:09:16;;;;;;;282.90;38.47;;;-1.10;99.90;;;;;;5112091;28;20107;-60
2022/12/10 07:11:42;;;;;;;167.75;34.33;;;-1.10;99.90;;;;;;5115464;28;20051;-60
2022/12/10 07:14:13;;;;;;;174.80;34.58;;;-1.40;99.90;;;;;;5115881;28;20043;-60
2022/12/10 07:16:38;;;;;;;119.47;33.65;;;-1.30;99.90;;;;;;5115838;28;20044;-60
2022/12/10 07:19:04;;;;;;;147.95;37.90;;;-1.40;99.90;;;;;;5115676;28;20123;-60
2022/12/10 07:21:32;;;;;;;94.22;37.95;;;-1.40;99.90;;;;;;5115339;28;20063;-60
2022/12/10 07:24:04;;;;;;;207.07;40.95;;;-1.10;99.90;;;;;;5097496;28;20036;-60
2022/12/10 07:26:33;;;;;;;123.45;38.15;;;-1.20;99.90;;;;;;5114696;28;20039;-60
2022/12/10 07:28:59;;;;;;;115.90;36.78;;;-1.20;99.90;;;;;;5115712;28;20389;-61
2022/12/10 07:31:25;;;;;;;145.57;35.35;;;-1.40;99.90;;;;;;5115583;28;20051;-61
2022/12/10 07:33:52;;;;;;;90.95;35.97;;;-1.20;99.90;;;;;;5115204;28;20043;-60
2022/12/10 07:36:20;;;;;;;232.07;38.08;;;-1.50;99.90;;;;;;5115228;28;20043;-61
2022/12/10 07:38:46;;;;;;;211.45;35.25;;;-1.50;99.90;;;;;;5115130;28;20359;-60
2022/12/10 07:41:13;;;;;;;111.40;34.28;;;-1.50;99.90;;;;;;5115142;28;20043;-61
2022/12/10 07:43:43;;;;;;;112.20;33.15;;;-1.30;99.90;;;;;;5115155;28;20032;-60
2022/12/10 07:46:10;;;;;;;100.90;32.95;;;-1.30;99.90;;;;;;5114850;28;20482;-60
2022/12/10 07:48:37;;;;;;;120.97;33.65;;;-1.40;99.90;;;;;;5114093;28;20050;-60
2022/12/10 07:51:03;;;;;;;95.03;32.72;;;-1.50;99.90;;;;;;5114217;28;20111;-60
2022/12/10 07:53:29;;;;;;;128.00;32.35;;;-1.40;99.90;;;;;;5114064;28;20438;-60
2022/12/10 07:55:55;;;;;;;91.70;31.85;;;-1.60;99.90;;;;;;5114890;28;20035;-60
2022/12/10 07:58:20;;;;;;;179.48;32.20;;;-1.70;99.90;;;;;;5114888;28;20542;-59
2022/12/10 08:00:46;;;;;;;148.93;32.00;;;-1.60;99.90;;;;;;5114715;28;20035;-60
2022/12/10 08:03:12;;;;;;;201.88;32.33;;;-1.50;99.90;;;;;;5114774;28;20451;-59
2022/12/10 08:05:38;;;;;;;174.95;34.28;;;-1.70;99.90;;;;;;5115005;28;20549;-60
2022/12/10 08:08:04;;;;;;;127.93;33.40;;;-1.60;99.90;;;;;;5114661;28;20050;-60
2022/12/10 08:10:29;;;;;;;132.98;33.65;;;-1.50;99.90;;;;;;5096251;28;20126;-59
2022/12/10 08:12:55;;;;;;;153.48;34.70;;;-1.70;99.90;;;;;;5114489;28;20127;-60
2022/12/10 08:15:21;;;;;;;166.00;36.22;;;-1.70;99.90;;;;;;5114428;28;20378;-59
2022/12/10 08:17:46;;;;;;;81.65;31.88;;;-1.60;99.90;;;;;;5114010;28;20031;-60
2022/12/10 08:20:13;;;;;;;157.38;37.00;;;-1.60;99.90;;;;;;5114477;28;20039;-60
2022/12/10 08:22:39;;;;;;;162.90;35.55;;;-1.70;99.90;;;;;;5113267;28;20035;-60
2022/12/10 08:25:05;;;;;;;103.82;35.35;;;-1.50;99.90;;;;;;5114427;28;20031;-60
2022/12/10 08:27:31;;;;;;;156.27;36.70;;;-1.50;99.90;;;;;;5114289;28;20536;-60
2022/12/10 08:29:56;;;;;;;106.82;34.53;;;-1.60;99.90;;;;;;5114294;28;20123;-60
2022/12/10 08:32:22;;;;;;;113.95;32.47;;;-1.60;99.90;;;;;;5114100;28;20123;-60
2022/12/10 08:34:48;;;;;;;150.13;33.45;;;-1.70;99.90;;;;;;5113952;28;20040;-59
2022/12/10 08:37:14;;;;;;;94.35;33.72;;;-1.50;99.90;;;;;;5113803;28;20114;-59
2022/12/10 08:39:40;;;;;;;85.95;31.95;;;-1.80;99.90;;;;;;5114134;28;20426;-60
2022/12/10 08:42:05;;;;;;;117.10;34.38;;;-1.60;99.90;;;;;;5114174;28;20031;-60
2022/12/10 08:44:31;;;;;;;119.60;33.42;;;-1.70;99.90;;;;;;5113832;28;20044;-60
2022/12/10 08:46:57;;;;;;;105.13;31.58;;;-1.70;99.90;;;;;;5113989;28;20050;-59
2022/12/10 08:49:22;;;;;;;98.47;30.40;;;-1.60;99.90;;;;;;5113935;28;20083;-60
2022/12/10 08:51:48;;;;;;;97.10;31.48;;;-1.70;99.90;;;;;;5113772;28;20035;-60
2022/12/10 08:54:13;;;;;;;84.80;30.95;;;-1.50;99.90;;;;;;5113548;28;20047;-59
2022/12/10 08:56:39;;;;;;;80.95;32.00;;;-1.50;99.90;;;;;;5078146;28;20153;-59
2022/12/10 08:59:05;;;;;;;93.18;28.33;;;-1.50;99.90;;;;;;5113726;28;20350;-60
2022/12/10 09:01:31;;;;;;;101.63;26.30;;;-1.50;99.90;;;;;;5113621;28;20082;-60
2022/12/10 09:03:57;;;;;;;75.20;25.13;;;-1.60;99.90;;;;;;5113489;28;20063;-60
2022/12/10 09:06:24;;;;;;;109.55;26.20;;;-1.50;99.90;;;;;;5077765;28;20051;-60
2022/12/10 09:08:50;;;;;;;76.35;26.73;;;-1.70;99.90;;;;;;5113731;28;20106;-60
2022/12/10 09:11:20;;;;;;;64.63;24.08;;;-1.50;99.90;;;;;;5113406;28;20036;-59
2022/12/10 09:13:46;;;;;;;135.00;26.05;;;-1.50;99.90;;;;;;5113270;28;20494;-59
2022/12/10 09:16:12;;;;;;;57.08;23.88;;;-1.70;99.90;;;;;;5113173;28;20088;-60
2022/12/10 09:18:38;;;;;;;81.22;25.27;;;-1.60;99.90;;;;;;5113219;28;20035;-60
2022/12/10 09:21:09;;;;;;;83.70;24.88;;;-1.60;99.90;;;;;;5113078;28;20043;-60
2022/12/10 09:23:35;;;;;;;61.30;24.98;;;-1.60;99.90;;;;;;5113321;28;20039;-60
2022/12/10 09:26:04;;;;;;;70.82;24.70;;;-1.50;99.90;;;;;;5113226;28;20051;-59
2022/12/10 09:28:30;;;;;;;;;;;-1.50;99.90;;;;;;5113554;28;20036;-60
2022/12/10 09:30:57;;;;;;;72.22;24.10;;;-1.80;99.90;;;;;;5112957;28;20288;-60
2022/12/10 09:33:23;;;;;;;69.50;24.42;;;-1.80;99.90;;;;;;5112884;28;20046;-60
2022/12/10 09:35:49;;;;;;;76.78;24.65;;;-1.50;99.90;;;;;;5112941;28;20118;-60
2022/12/10 09:38:15;;;;;;;55.58;23.35;;;-1.70;99.90;;;;;;5113033;28;20161;-60
2022/12/10 09:40:47;;;;;;;60.85;24.58;;;-1.60;99.90;;;;;;5112643;28;20187;-60
2022/12/10 09:43:22;;;;;;;64.63;23.02;;;-1.50;99.90;;;;;;5112798;28;20486;-60
2022/12/10 09:46:15;;;;;;;71.28;24.50;;;-1.50;99.90;;;;;;5112722;28;20048;-60
2022/12/10 09:49:11;;;;;;;55.35;23.23;;;-1.70;99.90;;;;;;5094730;28;20052;-60
2022/12/10 09:51:37;;;;;;;57.38;23.77;;;-1.60;99.90;;;;;;5112612;28;20039;-60
2022/12/10 09:54:30;;;;;;;56.80;25.25;;;-1.60;99.90;;;;;;5112619;28;20047;-60
2022/12/10 09:56:58;;;;;;;55.67;24.80;;;-1.60;99.90;;;;;;5112984;28;20043;-60
2022/12/10 09:59:30;;;;;;;70.43;26.05;;;-1.60;99.90;;;;;;5113027;28;20042;-60
2022/12/10 10:02:19;;;;;;;50.20;24.65;;;-1.30;99.90;;;;;;5112434;28;20028;-60
2022/12/10 10:04:45;;;;;;;59.22;24.75;;;-1.30;99.90;;;;;;5112372;28;20092;-59
2022/12/10 10:07:28;;;;;;;60.22;26.33;;;-1.40;99.90;;;;;;5112519;28;20047;-60
2022/12/10 10:09:58;;;;;;;53.83;23.80;;;-1.40;99.90;;;;;;5112607;28;20046;-60
2022/12/10 10:12:26;;;;;;;49.63;24.60;;;-1.30;99.90;;;;;;5094353;28;20066;-60
2022/12/10 10:14:51;;;;;;;67.25;25.83;;;-1.40;99.90;;;;;;5112402;28;20401;-61
2022/12/10 10:17:27;;;;;;;70.50;25.35;;;-1.40;99.90;;;;;;5112208;28;20036;-61
2022/12/10 10:19:53;;;;;;;61.20;25.35;;;-1.40;99.90;;;;;;5112198;28;20517;-60
2022/12/10 10:22:19;;;;;;;55.78;24.15;;;-1.30;99.90;;;;;;5112491;28;20067;-61
2022/12/10 10:24:46;;;;;;;53.15;25.13;;;-1.30;99.90;;;;;;5112159;28;20036;-61
2022/12/10 10:27:26;;;;;;;51.15;24.02;;;-1.30;99.90;;;;;;5112325;28;20094;-60
2022/12/10 10:29:54;;;;;;;46.00;24.83;;;-1.00;99.90;;;;;;5112135;28;20047;-61
2022/12/10 10:32:26;;;;;;;47.78;23.85;;;-1.10;99.90;;;;;;5112321;28;20075;-61
2022/12/10 10:34:55;;;;;;;50.67;23.13;;;-1.20;99.90;;;;;;5112313;28;20047;-60
2022/12/10 10:37:28;;;;;;;47.90;24.05;;;-1.10;99.90;;;;;;5112145;28;20039;-60
2022/12/10 10:39:54;;;;;;;51.75;24.13;;;-1.00;99.90;;;;;;5111989;28;20036;-61
2022/12/10 10:42:41;;;;;;;60.97;25.25;;;-1.00;99.90;;;;;;5111961;28;20039;-60
2022/12/10 10:45:42;;;;;;;60.30;25.88;;;-0.90;99.90;;;;;;5113045;28;20040;-61
2022/12/10 10:48:20;;;;;;;48.80;23.67;;;-1.00;99.90;;;;;;5116437;28;20115;-60
2022/12/10 10:50:52;;;;;;;51.38;25.73;;;-0.80;99.90;;;;;;5097944;28;20054;-61
2022/12/10 10:53:25;;;;;;;47.78;22.65;;;-0.80;99.90;;;;;;5116297;28;20070;-61
2022/12/10 10:55:53;;;;;;;47.00;24.98;;;-0.70;99.90;;;;;;5116010;28;20093;-60
2022/12/10 10:58:20;;;;;;;49.07;24.43;;;-0.80;99.90;;;;;;5115994;28;20478;-60
2022/12/10 11:01:04;;;;;;;50.65;24.60;;;-0.60;99.90;;;;;;5115900;28;20035;-61
2022/12/10 11:03:32;;;;;;;49.80;23.92;;;-0.70;99.90;;;;;;5116135;28;20416;-61
2022/12/10 11:05:59;;;;;;;51.22;24.48;;;-0.70;99.90;;;;;;5115876;28;20046;-61
2022/12/10 11:08:29;;;;;;;49.65;24.15;;;-0.60;99.90;;;;;;5115649;28;20032;-61
2022/12/10 11:11:02;;;;;;;48.67;23.38;;;-0.60;99.90;;;;;;5115708;28;20115;-61
2022/12/10 11:13:31;;;;;;;53.03;23.73;;;-0.70;99.90;;;;;;5115805;28;20036;-61
2022/12/10 11:16:10;;;;;;;55.50;23.15;;;-0.50;99.90;;;;;;5115889;28;20351;-60
2022/12/10 11:18:38;;;;;;;52.20;21.90;;;-0.60;99.90;;;;;;5097280;28;20039;-61
2022/12/10 11:21:16;;;;;;;52.67;24.15;;;-0.70;99.90;;;;;;5115593;28;20036;-61
2022/12/10 11:23:47;;;;;;;46.42;21.75;;;-0.80;99.90;;;;;;5115429;28;20048;-60
2022/12/10 11:26:33;;;;;;;48.25;22.10;;;-0.80;99.90;;;;;;5115366;28;20046;-61
2022/12/10 11:29:06;;;;;;;57.13;25.63;;;-0.60;99.90;;;;;;5115799;28;20039;-61
2022/12/10 11:31:50;;;;;;;50.30;23.35;;;-0.80;99.90;;;;;;5115394;28;20042;-61
2022/12/10 11:34:34;;;;;;;49.13;22.13;;;-0.70;99.90;;;;;;5115238;28;20043;-61
2022/12/10 11:37:27;;;;;;;49.10;24.70;;;-0.50;99.90;;;;;;5115166;28;20039;-60
2022/12/10 11:40:04;;;;;;;48.03;23.58;;;-0.50;99.90;;;;;;5115233;28;20040;-61
2022/12/10 11:42:57;;;;;;;51.03;25.30;;;-0.60;99.90;;;;;;5115006;28;20043;-61
2022/12/10 11:45:39;;;;;;;51.72;24.10;;;-0.50;99.90;;;;;;5115288;28;20031;-61
2022/12/10 11:48:46;;;;;;;62.40;24.85;;;-0.50;99.90;;;;;;5115211;28;20035;-61
2022/12/10 11:51:23;;;;;;;55.58;25.80;;;-0.50;99.90;;;;;;5012356;28;20049;-61
2022/12/10 11:54:00;;;;;;;56.20;26.73;;;-0.40;99.90;;;;;;5012431;28;20062;-61
2022/12/10 11:56:56;;;;;;;62.20;26.63;;;-0.50;99.90;;;;;;5011004;28;20053;-60
2022/12/10 11:59:31;;;;;;;54.35;24.40;;;-0.40;99.90;;;;;;5011396;28;20129;-60
2022/12/10 12:02:44;;;;;;;55.47;26.50;;;-0.40;99.90;;;;;;5012215;28;20496;-61
2022/12/10 12:05:12;;;;;;;50.63;23.88;;;-0.50;99.90;;;;;;4973027;28;20417;-61
2022/12/10 12:07:57;;;;;;;61.28;27.15;;;-0.40;99.90;;;;;;4973144;28;20043;-61
2022/12/10 12:10:49;;;;;;;61.88;28.65;;;-0.20;99.90;;;;;;4973228;28;20386;-61
2022/12/10 12:13:30;;;;;;;60.67;25.90;;;-0.20;99.90;;;;;;4973027;28;20517;-62
2022/12/10 12:16:04;;;;;;;59.05;26.02;;;-0.30;99.90;;;;;;4972898;28;20148;-61
2022/12/10 12:18:59;;;;;;;56.50;25.77;;;-0.40;99.90;;;;;;4972888;28;20043;-61
2022/12/10 12:21:25;;;;;;;60.20;25.83;;;-0.10;99.90;;;;;;4972925;28;20409;-62
2022/12/10 12:24:03;;;;;;;60.08;27.17;;;-0.20;99.90;;;;;;4972836;28;20054;-62
2022/12/10 12:26:30;;;;;;;61.28;25.60;;;-0.10;99.90;;;;;;4972814;28;20061;-61
2022/12/10 12:29:24;;;;;;;56.63;26.88;;;-0.20;99.90;;;;;;5051251;28;20151;-61
2022/12/10 12:32:12;;;;;;;56.80;25.20;;;0.00;99.90;;;;;;5071465;28;20045;-61
2022/12/10 12:34:44;;;;;;;53.42;25.48;;;-0.20;99.90;;;;;;5071321;28;20093;-61
2022/12/10 12:37:15;;;;;;;56.55;25.67;;;-0.10;99.90;;;;;;5071246;28;20150;-61
2022/12/10 12:40:35;;;;;;;60.90;25.67;;;-0.20;99.90;;;;;;5071527;28;20045;-62
2022/12/10 12:43:14;;;;;;;59.30;25.67;;;0.00;99.90;;;;;;5031227;28;20052;-61
2022/12/10 12:45:43;;;;;;;60.85;25.83;;;-0.20;99.90;;;;;;5014691;28;20132;-61
2022/12/10 12:48:28;;;;;;;54.63;26.05;;;-0.30;99.90;;;;;;5031170;28;20045;-61
2022/12/10 12:51:05;;;;;;;69.13;26.60;;;-0.20;99.90;;;;;;5031298;28;20567;-61